createdAt,value
2023-05-10T00:00:24.777Z,100982.91
2023-05-10T00:02:51.246Z,100978.34
2023-05-10T00:05:17.828Z,100979.75
2023-05-10T00:07:47.061Z,100982.13
2023-05-10T00:10:13.988Z,100981.81
2023-05-10T00:12:40.533Z,100982.25
2023-05-10T00:15:07.764Z,100981.09
2023-05-10T00:17:34.212Z,100978.47
2023-05-10T00:20:01.620Z,100974.72
2023-05-10T00:22:28.124Z,100973.47
2023-05-10T00:24:54.506Z,100976.00
2023-05-10T00:27:20.828Z,100976.53
2023-05-10T00:29:47.204Z,100969.56
2023-05-10T00:32:14.845Z,100970.41
2023-05-10T00:34:41.560Z,100965.13
2023-05-10T00:37:07.952Z,100972.22
2023-05-10T00:39:34.392Z,100965.94
2023-05-10T00:42:01.254Z,100967.63
2023-05-10T00:44:27.646Z,100976.25
2023-05-10T00:46:54.150Z,100978.91
2023-05-10T00:49:21.619Z,100970.97
2023-05-10T00:51:48.233Z,100962.88
2023-05-10T00:54:15.901Z,100967.34
2023-05-10T00:56:42.760Z,100970.66
2023-05-10T00:59:09.500Z,100976.53
2023-05-10T01:01:36.926Z,100976.38
2023-05-10T01:04:04.071Z,100967.44
2023-05-10T01:06:30.484Z,100971.75
2023-05-10T01:08:57.257Z,100975.13
2023-05-10T01:11:23.683Z,100967.88
2023-05-10T01:13:57.504Z,100966.72
2023-05-10T01:16:25.743Z,100965.63
2023-05-10T01:18:53.072Z,100968.94
2023-05-10T01:21:49.375Z,100978.56
2023-05-10T01:24:30.972Z,100966.97
2023-05-10T01:27:27.264Z,100982.88
2023-05-10T01:30:13.665Z,100974.91
2023-05-10T01:33:19.111Z,100966.47
2023-05-10T01:36:13.837Z,100975.81
2023-05-10T01:38:51.387Z,100966.19
2023-05-10T01:41:30.554Z,100974.25
2023-05-10T01:44:04.455Z,100981.09
2023-05-10T01:46:38.128Z,100985.41
2023-05-10T01:49:09.499Z,100980.78
2023-05-10T01:51:48.056Z,100980.66
2023-05-10T01:54:18.466Z,100972.56
2023-05-10T01:56:48.102Z,100983.16
2023-05-10T01:59:19.192Z,100973.56
2023-05-10T02:01:47.537Z,100965.63
2023-05-10T02:04:17.916Z,100976.22
2023-05-10T02:06:46.823Z,100972.03
2023-05-10T02:09:15.066Z,100983.44
2023-05-10T02:11:44.675Z,100974.50
2023-05-10T02:14:12.549Z,100983.16
2023-05-10T02:16:41.531Z,100984.81
2023-05-10T02:19:09.900Z,100985.34
2023-05-10T02:21:38.062Z,100982.59
2023-05-10T02:24:06.274Z,100985.34
2023-05-10T02:26:35.230Z,100991.63
2023-05-10T02:29:04.363Z,100997.06
2023-05-10T02:31:34.133Z,101004.03
2023-05-10T02:34:01.398Z,100993.75
2023-05-10T02:36:28.741Z,100999.31
2023-05-10T02:38:56.397Z,101004.91
2023-05-10T02:41:25.121Z,101003.25
2023-05-10T02:43:55.866Z,101001.56
2023-05-10T02:46:22.433Z,101011.28
2023-05-10T02:48:48.936Z,101013.81
2023-05-10T02:51:18.489Z,101007.69
2023-05-10T02:53:47.676Z,101010.47
2023-05-10T02:56:20.968Z,101013.41
2023-05-10T02:58:47.419Z,101010.75
2023-05-10T03:01:13.887Z,101014.38
2023-05-10T03:03:40.399Z,101013.97
2023-05-10T03:06:07.641Z,101017.19
2023-05-10T03:08:34.497Z,101013.56
2023-05-10T03:11:22.704Z,101017.03
2023-05-10T03:14:00.439Z,101013.16
2023-05-10T03:16:36.287Z,101019.94
2023-05-10T03:19:18.520Z,101015.94
2023-05-10T03:21:50.736Z,101020.53
2023-05-10T03:24:19.875Z,101020.25
2023-05-10T03:26:46.685Z,101030.25
2023-05-10T03:29:15.057Z,101032.78
2023-05-10T03:31:41.671Z,101036.09
2023-05-10T03:34:08.300Z,101036.94
2023-05-10T03:36:34.696Z,101032.78
2023-05-10T03:39:01.070Z,101029.16
2023-05-10T03:41:27.412Z,101029.16
2023-05-10T03:43:53.790Z,101034.28
2023-05-10T03:46:20.184Z,101026.22
2023-05-10T03:48:46.513Z,101027.06
2023-05-10T03:51:12.881Z,101021.66
2023-05-10T03:53:39.201Z,101032.22
2023-05-10T03:56:05.831Z,101027.63
2023-05-10T03:58:32.197Z,101026.94
2023-05-10T04:00:58.539Z,101028.59
2023-05-10T04:03:26.876Z,101026.63
2023-05-10T04:06:03.182Z,101030.25
2023-05-10T04:08:30.046Z,101032.22
2023-05-10T04:11:06.561Z,101031.25
2023-05-10T04:13:33.093Z,101032.91
2023-05-10T04:15:59.477Z,101045.84
2023-05-10T04:18:26.094Z,101033.34
2023-05-10T04:20:52.399Z,101036.97
2023-05-10T04:23:18.770Z,101040.53
2023-05-10T04:25:45.334Z,101036.66
2023-05-10T04:28:11.721Z,101033.88
2023-05-10T04:30:38.145Z,101031.22
2023-05-10T04:33:04.551Z,101034.72
2023-05-10T04:35:31.213Z,101040.81
2023-05-10T04:37:57.561Z,101041.66
2023-05-10T04:40:23.990Z,101043.34
2023-05-10T04:42:50.361Z,101036.09
2023-05-10T04:45:16.780Z,101040.41
2023-05-10T04:47:43.192Z,101045.69
2023-05-10T04:50:09.770Z,101048.34
2023-05-10T04:52:36.551Z,101053.38
2023-05-10T04:55:03.018Z,101048.09
2023-05-10T04:57:29.374Z,101050.72
2023-05-10T04:59:55.942Z,101067.28
2023-05-10T05:02:22.769Z,101060.88
2023-05-10T05:04:49.192Z,101067.03
2023-05-10T05:07:15.685Z,101061.31
2023-05-10T05:09:42.080Z,101064.78
2023-05-10T05:12:08.424Z,101064.25
2023-05-10T05:14:34.782Z,101075.50
2023-05-10T05:17:01.253Z,101074.81
2023-05-10T05:19:29.234Z,101069.81
2023-05-10T05:21:55.701Z,101075.78
2023-05-10T05:24:22.097Z,101073.97
2023-05-10T05:26:48.448Z,101072.19
2023-05-10T05:29:14.754Z,101080.09
2023-05-10T05:31:41.211Z,101086.22
2023-05-10T05:34:07.554Z,101086.38
2023-05-10T05:36:39.160Z,101088.03
2023-05-10T05:39:05.836Z,101088.72
2023-05-10T05:41:32.258Z,101085.81
2023-05-10T05:43:58.895Z,101089.84
2023-05-10T05:46:25.412Z,101085.53
2023-05-10T05:48:51.994Z,101085.38
2023-05-10T05:51:18.492Z,101086.25
2023-05-10T05:53:44.842Z,101099.31
2023-05-10T05:56:11.191Z,101099.31
2023-05-10T05:58:37.526Z,101094.88
2023-05-10T06:01:03.984Z,101097.94
2023-05-10T06:03:30.401Z,101105.03
2023-05-10T06:05:56.769Z,101112.41
2023-05-10T06:08:23.451Z,101112.97
2023-05-10T06:10:49.879Z,101120.91
2023-05-10T06:13:16.497Z,101123.00
2023-05-10T06:15:42.951Z,101119.91
2023-05-10T06:18:09.503Z,101119.66
2023-05-10T06:20:35.977Z,101128.28
2023-05-10T06:23:02.312Z,101129.69
2023-05-10T06:25:28.678Z,101127.72
2023-05-10T06:27:58.367Z,101133.00
2023-05-10T06:30:29.129Z,101131.34
2023-05-10T06:32:56.277Z,101131.78
2023-05-10T06:35:22.917Z,101124.13
2023-05-10T06:37:49.952Z,101125.91
2023-05-10T06:40:16.618Z,101125.75
2023-05-10T06:42:43.073Z,101130.91
2023-05-10T06:45:10.125Z,101135.22
2023-05-10T06:47:38.817Z,101140.09
2023-05-10T06:50:06.205Z,101143.59
2023-05-10T06:52:32.572Z,101141.38
2023-05-10T06:54:59.153Z,101143.19
2023-05-10T06:59:57.182Z,101148.31
2023-05-10T07:02:23.973Z,101146.50
2023-05-10T07:04:51.024Z,101149.56
2023-05-10T07:07:17.451Z,101148.31
2023-05-10T07:09:43.789Z,101150.28
2023-05-10T07:12:12.766Z,101159.59
2023-05-10T07:14:40.924Z,101159.72
2023-05-10T07:17:07.389Z,101167.53
2023-05-10T07:19:33.879Z,101157.66
2023-05-10T07:22:00.252Z,101161.84
2023-05-10T07:24:26.604Z,101157.50
2023-05-10T07:26:52.970Z,101167.25
2023-05-10T07:29:19.349Z,101166.44
2023-05-10T07:31:45.729Z,101179.81
2023-05-10T07:34:12.178Z,101172.13
2023-05-10T07:36:38.531Z,101183.41
2023-05-10T07:39:05.002Z,101187.91
2023-05-10T07:41:31.382Z,101185.22
2023-05-10T07:43:57.828Z,101183.38
2023-05-10T07:46:24.296Z,101188.78
2023-05-10T07:48:50.863Z,101190.03
2023-05-10T07:51:17.392Z,101196.09
2023-05-10T07:53:43.863Z,101196.06
2023-05-10T07:56:28.048Z,101192.69
2023-05-10T07:58:55.346Z,101199.78
2023-05-10T08:01:22.085Z,101196.91
2023-05-10T08:03:49.201Z,101204.41
2023-05-10T08:06:18.271Z,101211.13
2023-05-10T08:08:46.488Z,101211.69
2023-05-10T08:11:12.924Z,101212.53
2023-05-10T08:13:39.264Z,101215.03
2023-05-10T08:16:06.340Z,101225.38
2023-05-10T08:18:32.846Z,101216.22
2023-05-10T08:20:59.246Z,101216.50
2023-05-10T08:23:25.640Z,101214.00
2023-05-10T08:25:52.028Z,101220.69
2023-05-10T08:28:18.395Z,101219.59
2023-05-10T08:30:44.802Z,101220.00
2023-05-10T08:33:11.205Z,101227.34
2023-05-10T08:35:37.655Z,101232.75
2023-05-10T08:38:04.234Z,101238.78
2023-05-10T08:40:30.662Z,101234.03
2023-05-10T08:43:10.918Z,101242.38
2023-05-10T08:45:46.331Z,101248.28
2023-05-10T08:48:12.841Z,101245.22
2023-05-10T08:50:40.944Z,101249.38
2023-05-10T08:53:13.742Z,101255.75
2023-05-10T08:55:43.016Z,101252.38
2023-05-10T08:58:10.317Z,101253.19
2023-05-10T09:00:38.302Z,101260.47
2023-05-10T09:03:05.810Z,101258.97
2023-05-10T09:05:32.282Z,101254.34
2023-05-10T09:08:01.293Z,101256.97
2023-05-10T09:10:28.812Z,101245.59
2023-05-10T09:12:59.194Z,101246.28
2023-05-10T09:15:26.301Z,101255.00
2023-05-10T09:17:52.784Z,101253.78
2023-05-10T09:20:20.287Z,101256.13
2023-05-10T09:22:46.915Z,101250.78
2023-05-10T09:25:15.567Z,101259.19
2023-05-10T09:27:46.410Z,101263.16
2023-05-10T09:30:28.536Z,101263.56
2023-05-10T09:32:55.783Z,101250.94
2023-05-10T09:35:25.974Z,101252.44
2023-05-10T09:37:56.189Z,101262.28
2023-05-10T09:40:27.280Z,101265.59
2023-05-10T09:42:56.389Z,101268.63
2023-05-10T09:45:24.974Z,101276.91
2023-05-10T09:47:51.510Z,101271.94
2023-05-10T09:50:18.232Z,101278.56
2023-05-10T09:52:54.657Z,101284.16
2023-05-10T09:55:23.583Z,101282.38
2023-05-10T09:57:59.037Z,101294.28
2023-05-10T10:00:25.637Z,101288.09
2023-05-10T10:02:57.757Z,101292.84
2023-05-10T10:05:34.387Z,101305.59
2023-05-10T10:08:04.358Z,101293.03
2023-05-10T10:10:32.583Z,101295.75
2023-05-10T10:12:59.364Z,101299.69
2023-05-10T10:15:26.016Z,101306.38
2023-05-10T10:17:53.634Z,101305.72
2023-05-10T10:20:23.605Z,101307.38
2023-05-10T10:22:50.333Z,101303.19
2023-05-10T10:25:18.780Z,101310.66
2023-05-10T10:27:54.259Z,101304.09
2023-05-10T10:30:36.347Z,101300.34
2023-05-10T10:33:37.622Z,101300.63
2023-05-10T10:36:05.650Z,101306.06
2023-05-10T10:39:00.027Z,101306.72
2023-05-10T10:41:30.801Z,101315.22
2023-05-10T10:44:31.668Z,101312.16
2023-05-10T10:47:12.333Z,101309.00
2023-05-10T10:49:44.449Z,101315.81
2023-05-10T10:52:16.734Z,101309.50
2023-05-10T10:54:51.873Z,101306.22
2023-05-10T10:57:19.929Z,101315.56
2023-05-10T10:59:49.082Z,101311.50
2023-05-10T11:02:35.678Z,101314.72
2023-05-10T11:05:33.880Z,101313.84
2023-05-10T11:08:07.274Z,101316.03
2023-05-10T11:10:33.752Z,101318.69
2023-05-10T11:13:10.852Z,101314.94
2023-05-10T11:15:39.357Z,101313.03
2023-05-10T11:18:24.643Z,101314.81
2023-05-10T11:20:52.715Z,101316.41
2023-05-10T11:23:20.330Z,101318.31
2023-05-10T11:25:46.912Z,101321.69
2023-05-10T11:28:13.867Z,101326.28
2023-05-10T11:30:41.709Z,101322.16
2023-05-10T11:33:09.257Z,101324.03
2023-05-10T11:35:43.010Z,101329.13
2023-05-10T11:38:11.253Z,101321.56
2023-05-10T11:40:38.699Z,101319.59
2023-05-10T11:43:06.508Z,101326.41
2023-05-10T11:45:33.820Z,101316.13
2023-05-10T11:48:01.243Z,101314.31
2023-05-10T11:50:28.227Z,101310.44
2023-05-10T11:52:56.319Z,101317.44
2023-05-10T11:55:23.181Z,101314.34
2023-05-10T11:57:53.043Z,101315.84
2023-05-10T12:00:19.927Z,101326.25
2023-05-10T12:02:46.678Z,101327.75
2023-05-10T12:05:13.907Z,101323.78
2023-05-10T12:07:40.326Z,101329.56
2023-05-10T12:10:15.381Z,101333.03
2023-05-10T12:12:43.930Z,101333.88
2023-05-10T12:15:21.613Z,101332.56
2023-05-10T12:17:48.979Z,101325.94
2023-05-10T12:20:16.979Z,101337.28
2023-05-10T12:22:55.190Z,101321.63
2023-05-10T12:25:23.455Z,101327.75
2023-05-10T12:27:59.041Z,101329.94
2023-05-10T12:30:27.676Z,101328.91
2023-05-10T12:32:54.976Z,101324.81
2023-05-10T12:35:25.052Z,101325.44
2023-05-10T12:37:52.400Z,101331.63
2023-05-10T12:40:19.054Z,101322.97
2023-05-10T12:42:45.910Z,101315.78
2023-05-10T12:45:12.597Z,101320.03
2023-05-10T12:47:40.837Z,101326.13
2023-05-10T12:50:09.100Z,101325.25
2023-05-10T12:52:35.616Z,101320.66
2023-05-10T12:55:02.572Z,101327.16
2023-05-10T12:57:28.956Z,101333.22
2023-05-10T12:59:55.943Z,101336.53
2023-05-10T13:02:23.951Z,101336.41
2023-05-10T13:04:51.095Z,101328.13
2023-05-10T13:07:17.782Z,101342.13
2023-05-10T13:09:44.370Z,101339.22
2023-05-10T13:12:10.792Z,101351.28
2023-05-10T13:14:37.152Z,101345.28
2023-05-10T13:17:03.528Z,101350.56
2023-05-10T13:19:29.927Z,101362.47
2023-05-10T13:21:56.326Z,101365.84
2023-05-10T13:24:23.221Z,101362.19
2023-05-10T13:26:49.598Z,101373.22
2023-05-10T13:29:18.319Z,101376.69
2023-05-10T13:31:44.815Z,101377.13
2023-05-10T13:34:11.197Z,101378.50
2023-05-10T13:36:37.515Z,101382.34
2023-05-10T13:39:06.083Z,101394.41
2023-05-10T13:41:32.667Z,101393.03
2023-05-10T13:43:58.991Z,101401.13
2023-05-10T13:46:25.372Z,101406.97
2023-05-10T13:48:51.756Z,101405.00
2023-05-10T13:51:18.437Z,101407.25
2023-05-10T13:53:44.751Z,101406.28
2023-05-10T13:56:11.117Z,101405.28
2023-05-10T13:58:37.482Z,101405.28
2023-05-10T14:01:03.880Z,101407.25
2023-05-10T14:03:30.328Z,101405.59
2023-05-10T14:05:56.852Z,101407.25
2023-05-10T14:08:23.580Z,101406.53
2023-05-10T14:10:50.017Z,101403.63
2023-05-10T14:13:16.443Z,101403.63
2023-05-10T14:15:42.823Z,101408.63
2023-05-10T14:18:09.233Z,101403.06
2023-05-10T14:20:35.721Z,101403.63
2023-05-10T14:23:02.065Z,101407.81
2023-05-10T14:25:28.978Z,101413.13
2023-05-10T14:27:55.589Z,101410.88
2023-05-10T14:30:21.939Z,101413.25
2023-05-10T14:32:48.343Z,101407.97
2023-05-10T14:35:16.143Z,101405.56
2023-05-10T14:37:44.939Z,101402.81
2023-05-10T14:40:11.773Z,101411.72
2023-05-10T14:42:38.133Z,101408.94
2023-05-10T14:45:05.194Z,101407.41
2023-05-10T14:47:31.859Z,101397.78
2023-05-10T14:49:59.115Z,101395.53
2023-05-10T14:52:25.662Z,101395.97
2023-05-10T14:54:52.082Z,101406.41
2023-05-10T14:57:18.406Z,101401.41
2023-05-10T14:59:44.714Z,101398.59
2023-05-10T15:02:11.761Z,101402.94
2023-05-10T15:04:38.708Z,101402.41
2023-05-10T15:07:05.602Z,101406.31
2023-05-10T15:09:31.942Z,101404.19
2023-05-10T15:11:58.288Z,101404.00
2023-05-10T15:14:24.946Z,101404.81
2023-05-10T15:16:51.239Z,101400.72
2023-05-10T15:19:17.598Z,101402.84
2023-05-10T15:21:45.453Z,101407.81
2023-05-10T15:24:11.836Z,101398.03
2023-05-10T15:26:38.167Z,101399.72
2023-05-10T15:29:04.762Z,101399.72
2023-05-10T15:31:31.165Z,101391.81
2023-05-10T15:34:00.841Z,101396.53
2023-05-10T15:36:27.388Z,101405.19
2023-05-10T15:38:54.899Z,101401.19
2023-05-10T15:41:21.702Z,101400.47
2023-05-10T15:43:48.035Z,101400.47
2023-05-10T15:46:14.363Z,101409.97
2023-05-10T15:48:40.739Z,101404.88
2023-05-10T15:51:07.099Z,101405.88
2023-05-10T15:53:33.446Z,101407.91
2023-05-10T15:55:59.845Z,101409.00
2023-05-10T15:58:26.257Z,101415.97
2023-05-10T16:00:52.672Z,101412.31
2023-05-10T16:03:19.098Z,101414.09
2023-05-10T16:05:45.582Z,101421.28
2023-05-10T16:08:11.947Z,101420.75
2023-05-10T16:10:38.522Z,101425.41
2023-05-10T16:13:04.940Z,101425.63
2023-05-10T16:15:31.320Z,101419.63
2023-05-10T16:17:58.088Z,101434.34
2023-05-10T16:20:25.039Z,101436.09
2023-05-10T16:22:51.468Z,101431.63
2023-05-10T16:25:18.330Z,101431.63
2023-05-10T16:27:45.024Z,101434.13
2023-05-10T16:30:11.674Z,101441.94
2023-05-10T16:32:38.105Z,101439.50
2023-05-10T16:35:04.835Z,101437.22
2023-05-10T16:37:31.200Z,101436.09
2023-05-10T16:39:57.611Z,101443.13
2023-05-10T16:42:25.072Z,101444.03
2023-05-10T16:44:51.561Z,101437.03
2023-05-10T16:47:18.123Z,101444.88
2023-05-10T16:49:44.445Z,101437.81
2023-05-10T16:52:11.020Z,101439.44
2023-05-10T16:54:37.384Z,101439.91
2023-05-10T16:57:03.884Z,101439.19
2023-05-10T16:59:30.366Z,101443.09
2023-05-10T17:01:56.793Z,101438.91
2023-05-10T17:04:23.202Z,101436.09
2023-05-10T17:06:49.590Z,101435.66
2023-05-10T17:09:15.965Z,101437.16
2023-05-10T17:11:42.282Z,101436.31
2023-05-10T17:14:08.658Z,101439.38
2023-05-10T17:16:35.781Z,101443.91
2023-05-10T17:19:02.345Z,101446.22
2023-05-10T17:21:28.698Z,101450.75
2023-05-10T17:23:55.096Z,101461.00
2023-05-10T17:26:22.230Z,101458.09
2023-05-10T17:28:48.616Z,101465.16
2023-05-10T17:31:15.141Z,101470.53
2023-05-10T17:33:41.596Z,101465.22
2023-05-10T17:36:08.098Z,101475.31
2023-05-10T17:38:34.452Z,101464.97
2023-05-10T17:41:00.822Z,101473.34
2023-05-10T17:43:27.126Z,101477.88
2023-05-10T17:45:53.505Z,101479.31
2023-05-10T17:48:19.926Z,101479.00
2023-05-10T17:50:46.314Z,101474.06
2023-05-10T17:53:12.708Z,101491.53
2023-05-10T17:55:43.609Z,101482.44
2023-05-10T17:58:11.508Z,101490.75
2023-05-10T18:00:38.376Z,101492.88
2023-05-10T18:03:05.848Z,101492.03
2023-05-10T18:05:36.104Z,101490.06
2023-05-10T18:08:02.500Z,101498.72
2023-05-10T18:10:28.838Z,101496.06
2023-05-10T18:12:55.548Z,101494.00
2023-05-10T18:15:21.950Z,101494.00
2023-05-10T18:17:49.395Z,101496.66
2023-05-10T18:20:15.767Z,101492.34
2023-05-10T18:22:42.164Z,101497.97
2023-05-10T18:25:08.951Z,101502.47
2023-05-10T18:27:35.389Z,101496.63
2023-05-10T18:30:02.193Z,101499.59
2023-05-10T18:32:28.531Z,101494.72
2023-05-10T18:34:55.894Z,101497.22
2023-05-10T18:37:22.496Z,101497.81
2023-05-10T18:39:48.950Z,101503.69
2023-05-10T18:42:15.424Z,101499.25
2023-05-10T18:44:41.802Z,101498.31
2023-05-10T18:47:08.272Z,101499.44
2023-05-10T18:49:34.621Z,101503.75
2023-05-10T18:52:00.975Z,101503.22
2023-05-10T18:54:27.494Z,101507.28
2023-05-10T18:56:53.873Z,101511.50
2023-05-10T18:59:20.286Z,101509.41
2023-05-10T19:01:47.210Z,101514.72
2023-05-10T19:04:14.968Z,101513.06
2023-05-10T19:06:41.828Z,101514.88
2023-05-10T19:09:08.827Z,101517.69
2023-05-10T19:11:35.727Z,101520.03
2023-05-10T19:14:02.516Z,101520.84
2023-05-10T19:16:30.170Z,101529.44
2023-05-10T19:18:56.897Z,101530.28
2023-05-10T19:21:24.791Z,101534.84
2023-05-10T19:23:51.999Z,101534.84
2023-05-10T19:26:18.619Z,101532.22
2023-05-10T19:28:45.205Z,101535.53
2023-05-10T19:31:11.784Z,101536.66
2023-05-10T19:33:38.938Z,101540.81
2023-05-10T19:36:05.448Z,101537.03
2023-05-10T19:38:31.819Z,101539.94
2023-05-10T19:40:59.060Z,101547.03
2023-05-10T19:43:26.681Z,101548.03
2023-05-10T19:45:53.022Z,101549.13
2023-05-10T19:48:19.409Z,101548.41
2023-05-10T19:50:45.790Z,101551.34
2023-05-10T19:53:12.146Z,101551.72
2023-05-10T19:55:38.565Z,101556.72
2023-05-10T19:58:05.549Z,101550.25
2023-05-10T20:00:31.887Z,101555.09
2023-05-10T20:02:58.390Z,101556.22
2023-05-10T20:05:25.221Z,101559.25
2023-05-10T20:07:51.644Z,101557.72
2023-05-10T20:10:18.213Z,101560.75
2023-05-10T20:12:52.841Z,101569.78
2023-05-10T20:15:22.122Z,101564.88
2023-05-10T20:17:53.708Z,101567.06
2023-05-10T20:20:21.015Z,101563.59
2023-05-10T20:22:48.336Z,101565.00
2023-05-10T20:25:16.165Z,101572.81
2023-05-10T20:27:42.770Z,101566.69
2023-05-10T20:30:10.305Z,101571.72
2023-05-10T20:32:37.453Z,101573.97
2023-05-10T20:35:04.610Z,101575.50
2023-05-10T20:37:30.979Z,101567.56
2023-05-10T20:39:57.445Z,101563.16
2023-05-10T20:42:23.881Z,101575.66
2023-05-10T20:44:50.605Z,101576.47
2023-05-10T20:47:17.393Z,101571.78
2023-05-10T20:49:43.883Z,101578.75
2023-05-10T20:52:10.345Z,101575.28
2023-05-10T20:54:36.680Z,101579.59
2023-05-10T20:57:03.179Z,101575.97
2023-05-10T20:59:29.504Z,101580.19
2023-05-10T21:01:56.963Z,101578.22
2023-05-10T21:04:24.488Z,101583.25
2023-05-10T21:06:51.174Z,101577.72
2023-05-10T21:09:17.567Z,101566.84
2023-05-10T21:11:44.291Z,101576.91
2023-05-10T21:14:10.695Z,101575.00
2023-05-10T21:16:37.058Z,101572.34
2023-05-10T21:19:03.513Z,101568.28
2023-05-10T21:21:29.929Z,101571.91
2023-05-10T21:23:56.285Z,101575.53
2023-05-10T21:26:23.209Z,101566.84
2023-05-10T21:28:49.640Z,101570.47
2023-05-10T21:31:16.000Z,101565.44
2023-05-10T21:33:42.343Z,101564.63
2023-05-10T21:36:09.515Z,101560.16
2023-05-10T21:38:36.057Z,101565.44
2023-05-10T21:41:06.616Z,101563.78
2023-05-10T21:43:33.011Z,101560.41
2023-05-10T21:45:59.373Z,101560.69
2023-05-10T21:48:25.825Z,101561.66
2023-05-10T21:50:52.248Z,101560.69
2023-05-10T21:53:18.728Z,101561.91
2023-05-10T21:55:45.072Z,101566.50
2023-05-10T21:58:11.506Z,101565.06
2023-05-10T22:00:37.827Z,101572.31
2023-05-10T22:03:04.313Z,101566.16
2023-05-10T22:05:30.802Z,101561.97
2023-05-10T22:07:57.348Z,101563.06
2023-05-10T22:10:23.695Z,101566.81
2023-05-10T22:12:50.035Z,101571.53
2023-05-10T22:15:16.459Z,101583.34
2023-05-10T22:17:42.843Z,101577.91
2023-05-10T22:20:09.521Z,101578.63
2023-05-10T22:22:36.712Z,101581.97
2023-05-10T22:25:03.755Z,101578.38
2023-05-10T22:27:30.114Z,101577.28
2023-05-10T22:29:56.466Z,101579.91
2023-05-10T22:32:22.784Z,101578.38
2023-05-10T22:34:49.200Z,101577.41
2023-05-10T22:37:17.730Z,101580.06
2023-05-10T22:39:45.878Z,101576.16
2023-05-10T22:42:12.501Z,101575.19
2023-05-10T22:44:38.920Z,101581.47
2023-05-10T22:47:06.551Z,101581.47
2023-05-10T22:49:33.997Z,101582.28
2023-05-10T22:52:00.660Z,101583.25
2023-05-10T22:54:27.720Z,101580.75
2023-05-10T22:56:54.373Z,101575.47
2023-05-10T22:59:20.920Z,101582.56
2023-05-10T23:01:48.823Z,101581.72
2023-05-10T23:04:15.763Z,101586.31
2023-05-10T23:06:42.136Z,101581.03
2023-05-10T23:09:08.965Z,101584.50
2023-05-10T23:11:35.390Z,101583.91
2023-05-10T23:14:01.910Z,101590.31
2023-05-10T23:16:28.383Z,101584.44
2023-05-10T23:18:56.038Z,101588.88
2023-05-10T23:21:22.499Z,101588.03
2023-05-10T23:23:49.239Z,101596.13
2023-05-10T23:26:16.212Z,101595.28
2023-05-10T23:28:42.591Z,101596.13
2023-05-10T23:31:09.089Z,101600.56
2023-05-10T23:33:35.584Z,101603.91
2023-05-10T23:36:01.923Z,101603.91
2023-05-10T23:38:28.227Z,101600.31
2023-05-10T23:40:54.963Z,101594.88
2023-05-10T23:43:21.813Z,101598.34
2023-05-10T23:45:55.704Z,101601.00
2023-05-10T23:48:22.373Z,101600.31
2023-05-10T23:50:48.957Z,101600.31
2023-05-10T23:53:15.608Z,101599.59
2023-05-10T23:55:42.400Z,101601.28
2023-05-10T23:58:08.811Z,101598.63
